Dover, NH

7:24 PM EDT on October 22, 2014 (GMT -0400)
Dover Point | Change Station
CLOSE
Current Station
Personal Weather Station
Location: Dover, NH
Elevation: 85 ft
Nearby Weather Stations
Active Advisory: Areal Flood Watch

Elev 85 ft 43.16 °N, 70.84 °W | Updated 4 seconds ago

Overcast
Overcast
47.4 °F
Feels Like 46 °F
N
4.0
Wind Variable Wind from NNW
Gusts 8.0 mph

Today
High -- | Low -- °F
--% Chance of Precip.
Yesterday
High -- | Low -- °F
Precip. -- in
7:05 AM 5:49 PM
Waning Crescent, 1% visible
Pressure 29.98 in
Visibility 2.5 miles
Clouds Overcast 800 ft
Windchill 46 °F
Dew Point 46 °F
Humidity 95%
Rainfall 0.58 in
Snow Depth Not available.
UV 0 out of 12
Pollen .10 out of 12
Ozone Good
PM2.5 Good
Flu Activity Local Activity
SPECI KDAW 222319Z AUTO 03013G26KT 2 1/2SM -RA BR OVC008 08/07 A2998 RMK AO2 PK WND 02026/2313 CIG 005V012 P0000 T00830072

More Conditions Fewer Conditions

Pressure 29.98 in
Visibility 2.5 miles
Clouds Overcast 800 ft
Windchill 46 °F
Dew Point 46 °F
Humidity 95%
Rainfall 0.58 in
Snow Depth Not available.
UV 0 out of 12
Pollen .10 out of 12
Ozone Good
PM2.5 Good
Flu Activity Local Activity
SPECI KDAW 222319Z AUTO 03013G26KT 2 1/2SM -RA BR OVC008 08/07 A2998 RMK AO2 PK WND 02026/2313 CIG 005V012 P0000 T00830072

More Conditions Fewer Conditions

10-Day Weather Forecast

Almanac

Astronomy

Oct. 22, 2014 Rise Set
Actual Time 7:05 AM EDT 5:49 PM EDT
Civil Twilight 6:36 AM EDT 6:18 PM EDT
Nautical Twilight 6:03 AM EDT 6:51 PM EDT
Astronomical Twilight 5:30 AM EDT 7:24 PM EDT
Moon 5:42 AM EDT 5:16 PM EDT
Length of Visible Light 11h 41m
Length of Day
10h 43m
Tomorrow will be 2m 46s shorter.
Waning Crescent, 1% of the Moon is Illuminated
Today
Waning Crescent
Oct 23
New
Oct 30
First Quarter
Nov 6
Full
Nov 14
Last Quarter

Today's Extremes

State Highs State Lows

Community

WunderPhotos

Upload Photos

1,764,078 photos uploaded!

WunderBlogs® & News

Nearby

Air Quality

  Air Quality AQ Index Pollutant
Yesterday Good
OZONE
Yesterday Good
PM2.5
Current Good
OZONE
Current Good
PM2.5
Wednesday Good
PM2.5
Wednesday Good
OZONE
Thursday Good
PM2.5
Thursday Good
OZONE

Snow Depth

Station Depth Elevation
No new snow has been reported.

Earthquake Activity

City Distance Mag. Time & Date
No recent earthquake activity has been reported nearby.
Minimum magnitude displayed is 2.5.

Coastal Water Temperatures

Place Temperature
Wells, ME 50.0 °F
Portland, ME 54.0 °F

Nearby Weather Stations